Time;durP1;ratioP1;P1;durP2;ratioP2;P2;SDS_P1;SDS_P2;PMS_P1;PMS_P2;Temp;Humidity;BMP_temperature;BMP_pressure;BME280_temperature;BME280_humidity;BME280_pressure;Samples;Min_cycle;Max_cycle;Signal;HPM_P1;HPM_P2
2021/11/15 00:01:44;;;;;;;84.72;35.92;;;7.90;99.90;;;;;;6244305;22;20149;-79
2021/11/15 00:04:14;;;;;;;86.43;33.40;;;7.90;99.90;;;;;;6244153;22;20015;-79
2021/11/15 00:06:40;;;;;;;76.70;33.00;;;7.90;99.90;;;;;;6269757;22;20018;-79
2021/11/15 00:09:07;;;;;;;89.57;35.25;;;7.90;99.90;;;;;;6270516;22;20011;-79
2021/11/15 00:11:34;;;;;;;86.97;33.47;;;8.10;99.90;;;;;;6244122;22;20066;-79
2021/11/15 00:14:00;;;;;;;86.28;33.47;;;7.80;99.90;;;;;;6219569;22;20007;-79
2021/11/15 00:16:26;;;;;;;86.93;33.63;;;7.80;99.90;;;;;;6217271;22;20012;-79
2021/11/15 00:18:52;;;;;;;96.13;35.80;;;7.90;99.90;;;;;;6245016;22;20332;-78
2021/11/15 00:21:18;;;;;;;102.85;36.55;;;7.80;99.90;;;;;;6218087;22;20012;-78
2021/11/15 00:23:43;;;;;;;84.65;34.67;;;7.80;99.90;;;;;;6241622;22;20031;-78
2021/11/15 00:26:09;;;;;;;85.47;34.75;;;7.80;99.90;;;;;;6217866;22;20061;-78
2021/11/15 00:28:35;;;;;;;82.88;34.38;;;8.10;99.90;;;;;;6219606;22;20019;-79
2021/11/15 00:31:00;;;;;;;88.95;34.28;;;7.90;99.90;;;;;;6218495;22;20016;-78
2021/11/15 00:33:26;;;;;;;79.82;32.90;;;7.70;99.90;;;;;;6243896;22;20090;-79
2021/11/15 00:35:52;;;;;;;92.38;35.30;;;7.70;99.90;;;;;;6244588;22;20077;-78
2021/11/15 00:38:19;;;;;;;86.55;34.53;;;7.70;99.90;;;;;;6219461;22;20012;-79
2021/11/15 00:40:46;;;;;;;86.25;34.80;;;7.80;99.90;;;;;;6244241;22;20027;-79
2021/11/15 00:43:11;;;;;;;86.60;32.58;;;7.80;99.90;;;;;;6219738;22;20019;-78
2021/11/15 00:45:38;;;;;;;83.15;32.47;;;7.70;99.90;;;;;;6243344;22;20166;-79
2021/11/15 00:48:05;;;;;;;84.40;33.13;;;7.70;99.90;;;;;;6217623;22;20045;-80
2021/11/15 00:50:31;;;;;;;81.35;33.65;;;7.70;99.90;;;;;;6241844;22;20085;-79
2021/11/15 00:52:57;;;;;;;85.68;33.72;;;7.70;99.90;;;;;;6241439;22;20082;-79
2021/11/15 00:55:24;;;;;;;89.38;35.15;;;7.70;99.90;;;;;;6239535;22;20495;-79
2021/11/15 00:57:50;;;;;;;82.75;33.15;;;7.70;99.90;;;;;;6216618;22;20004;-78
2021/11/15 01:00:22;;;;;;;84.93;33.08;;;7.70;99.90;;;;;;6240410;22;20023;-79
2021/11/15 01:02:48;;;;;;;72.90;31.80;;;7.70;99.90;;;;;;6214130;22;20054;-79
2021/11/15 01:05:27;;;;;;;79.70;33.78;;;7.70;99.90;;;;;;6197089;23;20028;-76
2021/11/15 01:08:01;;;;;;;75.43;31.48;;;7.70;99.90;;;;;;6182358;23;20021;-76
2021/11/15 01:10:49;;;;;;;68.40;29.98;;;7.70;99.90;;;;;;6184340;23;20074;-79
2021/11/15 01:14:01;;;;;;;72.18;29.13;;;7.70;99.90;;;;;;6182252;23;20044;-79
2021/11/15 01:17:03;;;;;;;63.55;28.95;;;7.10;99.90;;;;;;6184513;23;20095;-79
2021/11/15 01:20:31;;;;;;;72.95;31.75;;;7.40;99.90;;;;;;6182489;23;20028;-79
2021/11/15 01:22:57;;;;;;;64.40;29.15;;;7.70;99.90;;;;;;6186809;23;20069;-79
2021/11/15 01:25:24;;;;;;;69.65;29.75;;;7.60;99.90;;;;;;6186053;23;20070;-79
2021/11/15 01:27:49;;;;;;;65.25;29.02;;;7.60;99.90;;;;;;6187575;23;20048;-79
2021/11/15 01:30:18;;;;;;;70.32;29.02;;;7.60;99.90;;;;;;6214300;23;20013;-79
2021/11/15 01:32:44;;;;;;;63.05;27.77;;;7.60;99.90;;;;;;6187336;23;20095;-79
2021/11/15 01:35:10;;;;;;;67.28;30.08;;;7.60;99.90;;;;;;6185608;23;20012;-79
2021/11/15 01:37:37;;;;;;;68.35;29.90;;;7.70;99.90;;;;;;6187121;23;20017;-79
2021/11/15 01:40:06;;;;;;;64.97;28.27;;;7.60;99.90;;;;;;6187018;23;20016;-79
2021/11/15 01:42:31;;;;;;;67.55;29.90;;;7.60;99.90;;;;;;6162111;23;20016;-79
2021/11/15 01:44:57;;;;;;;61.70;25.17;;;7.60;99.90;;;;;;6186792;23;20440;-78
2021/11/15 01:47:23;;;;;;;70.82;29.40;;;7.60;99.90;;;;;;6161324;23;20051;-79
2021/11/15 01:49:50;;;;;;;76.93;30.75;;;7.60;99.90;;;;;;6186111;23;20016;-79
2021/11/15 01:52:16;;;;;;;75.75;31.63;;;7.60;99.90;;;;;;6161854;23;20062;-79
2021/11/15 01:54:41;;;;;;;76.75;31.90;;;7.50;99.90;;;;;;6212387;23;20316;-79
2021/11/15 01:57:07;;;;;;;78.55;32.33;;;7.50;99.90;;;;;;6186530;23;20008;-79
2021/11/15 01:59:33;;;;;;;87.25;32.97;;;7.50;99.90;;;;;;6184894;23;20789;-78
2021/11/15 02:01:59;;;;;;;80.50;33.00;;;7.60;99.90;;;;;;6185951;23;20012;-79
2021/11/15 02:04:25;;;;;;;83.95;32.42;;;7.50;99.90;;;;;;6185026;23;20342;-79
2021/11/15 02:06:52;;;;;;;79.78;31.25;;;7.40;99.90;;;;;;6204971;23;20016;-78
2021/11/15 02:09:18;;;;;;;77.93;29.45;;;7.40;99.90;;;;;;6209616;23;20021;-79
2021/11/15 02:11:44;;;;;;;75.80;30.92;;;7.40;99.90;;;;;;6211444;23;20111;-78
2021/11/15 02:14:10;;;;;;;78.93;31.38;;;7.40;99.90;;;;;;6209531;23;20078;-78
2021/11/15 02:16:36;;;;;;;76.82;31.23;;;7.30;99.90;;;;;;6207420;23;20409;-79
2021/11/15 02:19:01;;;;;;;86.50;30.52;;;7.30;99.90;;;;;;6210956;23;20039;-79
2021/11/15 02:21:27;;;;;;;66.65;26.92;;;7.30;99.90;;;;;;6183423;23;20478;-79
2021/11/15 02:23:53;;;;;;;63.30;22.77;;;7.30;99.90;;;;;;6207610;23;20016;-79
2021/11/15 02:26:22;;;;;;;70.32;27.70;;;7.30;99.90;;;;;;6207183;23;20044;-79
2021/11/15 02:28:49;;;;;;;71.00;27.38;;;7.30;99.90;;;;;;6211105;23;20042;-79
2021/11/15 02:31:22;;;;;;;67.18;25.88;;;7.30;99.90;;;;;;6209427;23;20027;-79
2021/11/15 02:33:49;;;;;;;74.00;28.23;;;7.40;99.90;;;;;;6185280;23;20013;-78
2021/11/15 02:36:15;;;;;;;67.28;26.67;;;7.30;99.90;;;;;;6211191;23;20021;-78
2021/11/15 02:38:41;;;;;;;73.25;26.80;;;7.20;99.90;;;;;;6209966;23;20078;-79
2021/11/15 02:41:07;;;;;;;78.13;26.88;;;7.20;99.90;;;;;;6184067;23;20096;-79
2021/11/15 02:43:33;;;;;;;68.55;26.40;;;7.10;99.90;;;;;;6185557;23;20008;-79
2021/11/15 02:45:59;;;;;;;77.68;27.40;;;7.20;99.90;;;;;;6210701;23;20131;-79
2021/11/15 02:48:26;;;;;;;69.38;25.10;;;7.20;99.90;;;;;;6210492;23;20043;-79
2021/11/15 02:50:53;;;;;;;61.47;25.33;;;7.10;99.90;;;;;;6212976;23;20028;-79
2021/11/15 02:53:19;;;;;;;71.15;27.40;;;7.20;99.90;;;;;;6210327;23;20084;-79
2021/11/15 02:55:46;;;;;;;71.70;25.75;;;7.10;99.90;;;;;;6208470;23;20012;-79
2021/11/15 02:58:14;;;;;;;71.47;27.08;;;7.10;99.90;;;;;;6209094;23;20020;-79
2021/11/15 03:00:55;;;;;;;75.47;26.20;;;7.10;99.90;;;;;;6210207;23;20019;-78
2021/11/15 03:03:21;;;;;;;67.03;26.13;;;7.10;99.90;;;;;;6185354;23;20016;-78
2021/11/15 03:05:49;;;;;;;72.13;26.23;;;7.10;99.90;;;;;;6210860;23;20055;-78
2021/11/15 03:08:17;;;;;;;63.70;25.98;;;7.10;99.90;;;;;;6184379;23;20021;-79
2021/11/15 03:10:45;;;;;;;64.18;24.20;;;7.10;99.90;;;;;;6184542;23;20088;-78
2021/11/15 03:13:15;;;;;;;58.35;23.20;;;7.00;99.90;;;;;;6182547;23;20024;-79
2021/11/15 03:15:43;;;;;;;66.05;24.95;;;7.00;99.90;;;;;;6185009;23;20116;-79
2021/11/15 03:18:18;;;;;;;67.85;24.55;;;7.10;99.90;;;;;;6185588;23;20016;-79
2021/11/15 03:20:47;;;;;;;64.40;24.48;;;7.10;99.90;;;;;;6208092;23;20078;-79
2021/11/15 03:23:22;;;;;;;62.08;23.70;;;7.00;99.90;;;;;;6181996;23;20111;-79
2021/11/15 03:25:49;;;;;;;62.15;24.33;;;7.10;99.90;;;;;;6180746;23;20044;-78
2021/11/15 03:28:19;;;;;;;56.17;22.67;;;7.00;99.90;;;;;;6185919;23;20091;-79
2021/11/15 03:30:48;;;;;;;62.15;23.48;;;7.00;99.90;;;;;;6184352;23;20095;-79
2021/11/15 03:33:15;;;;;;;59.00;24.00;;;7.00;99.90;;;;;;6208441;23;20016;-78
2021/11/15 03:35:40;;;;;;;54.38;22.10;;;7.00;99.90;;;;;;6207045;23;20046;-79
2021/11/15 03:38:07;;;;;;;58.75;22.92;;;7.00;99.90;;;;;;6209794;23;20365;-79
2021/11/15 03:40:33;;;;;;;58.70;22.98;;;7.10;99.90;;;;;;6182938;23;20020;-79
2021/11/15 03:43:00;;;;;;;55.70;22.70;;;7.00;99.90;;;;;;6210905;23;20310;-79
2021/11/15 03:45:28;;;;;;;56.80;24.30;;;6.90;99.90;;;;;;6206891;23;20023;-78
2021/11/15 03:47:55;;;;;;;57.17;23.13;;;7.00;99.90;;;;;;6179887;23;20039;-79
2021/11/15 03:50:22;;;;;;;53.28;21.73;;;6.90;99.90;;;;;;6205458;23;20408;-76
2021/11/15 03:52:49;;;;;;;63.50;25.08;;;7.10;99.90;;;;;;6183266;23;20031;-76
2021/11/15 03:55:18;;;;;;;61.40;24.48;;;6.90;99.90;;;;;;6210869;23;20084;-76
2021/11/15 03:57:45;;;;;;;59.10;23.88;;;7.00;99.90;;;;;;6210400;23;20024;-78
2021/11/15 04:00:14;;;;;;;61.92;24.60;;;7.00;99.90;;;;;;6182718;23;20027;-79
2021/11/15 04:02:40;;;;;;;74.93;29.77;;;6.90;99.90;;;;;;6210077;23;20094;-77
2021/11/15 04:05:08;;;;;;;71.72;28.60;;;7.30;99.90;;;;;;6209289;23;20023;-77
2021/11/15 04:07:39;;;;;;;86.40;33.05;;;6.90;99.90;;;;;;6184711;23;20023;-78
2021/11/15 04:10:18;;;;;;;87.32;33.45;;;6.90;99.90;;;;;;6209752;23;20067;-78
2021/11/15 04:12:45;;;;;;;82.82;32.10;;;6.80;99.90;;;;;;6159798;23;20095;-78
2021/11/15 04:15:12;;;;;;;94.45;34.60;;;6.80;99.90;;;;;;6182622;23;20088;-77
2021/11/15 04:17:38;;;;;;;95.05;35.80;;;7.00;99.90;;;;;;6182961;23;20451;-77
2021/11/15 04:20:06;;;;;;;99.00;34.00;;;6.80;99.90;;;;;;6158571;23;20026;-78
2021/11/15 04:22:32;;;;;;;95.47;35.75;;;6.80;99.90;;;;;;6184942;23;20021;-77
2021/11/15 04:24:57;;;;;;;102.00;35.90;;;6.80;99.90;;;;;;6184091;23;20023;-77
2021/11/15 04:27:23;;;;;;;110.80;38.55;;;6.80;99.90;;;;;;6159348;23;20016;-77
2021/11/15 04:29:48;;;;;;;118.80;39.22;;;6.80;99.90;;;;;;6158967;23;20028;-77
2021/11/15 04:32:14;;;;;;;110.72;39.20;;;6.80;99.90;;;;;;6212056;23;20110;-77
2021/11/15 04:34:40;;;;;;;108.93;38.25;;;6.80;99.90;;;;;;6184449;23;20087;-78
2021/11/15 04:37:05;;;;;;;105.13;38.58;;;6.80;99.90;;;;;;6185020;23;20012;-77
2021/11/15 04:39:31;;;;;;;118.43;41.03;;;6.80;99.90;;;;;;6184328;23;20048;-78
2021/11/15 04:41:57;;;;;;;116.85;40.08;;;6.80;99.90;;;;;;6160458;23;20091;-77
2021/11/15 04:44:23;;;;;;;120.30;40.63;;;6.80;99.90;;;;;;6181279;23;20087;-77
2021/11/15 04:46:49;;;;;;;112.60;40.28;;;6.90;99.90;;;;;;6155144;23;20009;-77
2021/11/15 04:49:14;;;;;;;120.18;40.42;;;6.80;99.90;;;;;;6157307;23;20028;-77
2021/11/15 04:51:40;;;;;;;116.95;39.55;;;6.90;99.90;;;;;;6182380;23;20754;-77
2021/11/15 04:54:06;;;;;;;114.80;39.95;;;6.90;99.90;;;;;;6183637;23;20069;-78
2021/11/15 04:56:32;;;;;;;111.53;40.40;;;6.90;99.90;;;;;;6160846;23;20008;-78
2021/11/15 04:59:01;;;;;;;122.25;40.30;;;6.90;99.90;;;;;;6162693;23;20339;-77
2021/11/15 05:01:26;;;;;;;109.45;38.70;;;6.80;99.90;;;;;;6184222;23;20020;-77
2021/11/15 05:03:52;;;;;;;115.38;40.33;;;6.80;99.90;;;;;;6187162;23;20092;-78
2021/11/15 05:06:17;;;;;;;106.68;37.70;;;6.80;99.90;;;;;;6199111;23;20012;-77
2021/11/15 05:08:45;;;;;;;113.38;40.15;;;6.80;99.90;;;;;;6210109;23;20016;-78
2021/11/15 05:11:10;;;;;;;106.82;38.58;;;6.80;99.90;;;;;;6187825;23;20013;-77
2021/11/15 05:13:36;;;;;;;107.35;38.88;;;6.80;99.90;;;;;;6209430;23;20059;-77
2021/11/15 05:16:01;;;;;;;102.60;37.67;;;6.90;99.90;;;;;;6186425;23;20417;-78
2021/11/15 05:18:27;;;;;;;97.80;37.72;;;6.80;99.90;;;;;;6211993;23;20016;-78
2021/11/15 05:20:53;;;;;;;109.40;39.58;;;6.80;99.90;;;;;;6187620;23;20017;-77
2021/11/15 05:23:18;;;;;;;105.68;38.47;;;6.80;99.90;;;;;;6185568;23;20095;-77
2021/11/15 05:25:44;;;;;;;110.18;39.72;;;6.80;99.90;;;;;;6186537;23;20024;-77
2021/11/15 05:28:10;;;;;;;113.18;37.83;;;6.80;99.90;;;;;;6211458;23;20028;-78
2021/11/15 05:30:36;;;;;;;119.65;41.38;;;6.90;99.90;;;;;;6185600;23;20322;-77
2021/11/15 05:33:02;;;;;;;116.78;41.22;;;6.80;99.90;;;;;;6211447;23;20020;-77
2021/11/15 05:35:28;;;;;;;115.53;40.80;;;6.80;99.90;;;;;;6213361;23;20348;-77
2021/11/15 05:37:56;;;;;;;109.15;38.72;;;6.80;99.90;;;;;;6185961;23;20008;-77
2021/11/15 05:40:23;;;;;;;104.63;38.10;;;6.80;99.90;;;;;;6212093;23;20023;-78
2021/11/15 05:42:50;;;;;;;104.93;36.67;;;6.80;99.90;;;;;;6210281;23;20034;-77
2021/11/15 05:45:16;;;;;;;104.80;36.58;;;6.80;99.90;;;;;;6183284;23;20016;-78
2021/11/15 05:47:43;;;;;;;103.40;36.40;;;6.80;99.90;;;;;;6209041;23;20016;-80
2021/11/15 05:50:09;;;;;;;104.32;35.80;;;6.80;99.90;;;;;;6186098;23;20389;-77
2021/11/15 05:52:40;;;;;;;97.93;31.98;;;6.80;99.90;;;;;;6185517;23;20023;-77
2021/11/15 05:55:08;;;;;;;89.80;30.63;;;6.80;99.90;;;;;;6185560;23;20021;-76
2021/11/15 05:57:33;;;;;;;81.78;29.13;;;6.70;99.90;;;;;;6211688;23;20115;-77
2021/11/15 05:59:59;;;;;;;81.45;28.67;;;6.80;99.90;;;;;;6184792;23;20075;-76
2021/11/15 06:02:25;;;;;;;77.63;26.42;;;6.80;99.90;;;;;;6210207;23;20019;-76
2021/11/15 06:04:50;;;;;;;78.00;28.25;;;6.70;99.90;;;;;;6211133;23;20012;-76
2021/11/15 06:07:16;;;;;;;79.60;26.25;;;6.80;99.90;;;;;;6212126;23;20170;-76
2021/11/15 06:09:42;;;;;;;81.30;26.90;;;6.70;99.90;;;;;;6187171;23;20015;-77
2021/11/15 06:12:08;;;;;;;85.65;28.30;;;6.70;99.90;;;;;;6210859;23;20012;-77
2021/11/15 06:14:34;;;;;;;92.45;30.25;;;6.70;99.90;;;;;;6211669;23;20360;-77
2021/11/15 06:16:59;;;;;;;81.95;27.63;;;6.70;99.90;;;;;;6186161;23;20013;-77
2021/11/15 06:19:25;;;;;;;84.57;28.75;;;6.80;99.90;;;;;;6187381;23;20015;-76
2021/11/15 06:21:51;;;;;;;92.53;28.92;;;6.70;99.90;;;;;;6210482;23;20095;-76
2021/11/15 06:24:17;;;;;;;83.28;29.27;;;6.70;99.90;;;;;;6185091;23;20021;-76
2021/11/15 06:26:43;;;;;;;88.53;29.13;;;6.70;99.90;;;;;;6185670;23;20091;-77
2021/11/15 06:29:09;;;;;;;92.80;30.02;;;6.70;99.90;;;;;;6185028;23;20063;-77
2021/11/15 06:31:35;;;;;;;80.78;28.65;;;6.80;99.90;;;;;;6185147;23;20382;-77
2021/11/15 06:34:01;;;;;;;88.75;29.52;;;6.70;99.90;;;;;;6211016;23;20028;-77
2021/11/15 06:36:26;;;;;;;93.47;30.77;;;6.70;99.90;;;;;;6209681;23;20091;-77
2021/11/15 06:38:53;;;;;;;94.03;30.02;;;6.80;99.90;;;;;;6212716;23;20040;-77
2021/11/15 06:41:23;;;;;;;98.75;30.20;;;6.80;99.90;;;;;;6186507;23;20009;-76
2021/11/15 06:43:49;;;;;;;89.68;27.45;;;6.70;99.90;;;;;;6212765;23;20139;-77
2021/11/15 06:46:15;;;;;;;73.13;25.10;;;6.90;99.90;;;;;;6212114;23;20012;-77
2021/11/15 06:48:41;;;;;;;86.30;25.38;;;6.70;99.90;;;;;;6212155;23;20480;-77
2021/11/15 06:51:11;;;;;;;80.45;25.52;;;6.70;99.90;;;;;;6211079;23;20021;-77
2021/11/15 06:53:39;;;;;;;84.07;26.33;;;6.70;99.90;;;;;;6210963;23;20312;-77
2021/11/15 06:56:06;;;;;;;86.03;25.95;;;6.80;99.90;;;;;;6209800;23;20048;-77
2021/11/15 06:58:32;;;;;;;83.05;25.60;;;6.80;99.90;;;;;;6186770;23;20008;-76
2021/11/15 07:00:58;;;;;;;73.90;24.73;;;6.80;99.90;;;;;;6185981;23;20095;-76
2021/11/15 07:03:24;;;;;;;72.15;23.67;;;6.70;99.90;;;;;;6186042;23;20482;-78
2021/11/15 07:05:50;;;;;;;69.97;22.38;;;6.90;99.90;;;;;;6210911;23;20110;-77
2021/11/15 07:08:16;;;;;;;57.58;19.27;;;6.80;99.90;;;;;;6186338;23;20095;-77
2021/11/15 07:10:43;;;;;;;58.75;18.48;;;6.70;99.90;;;;;;6213364;23;20008;-77
2021/11/15 07:13:09;;;;;;;50.25;18.73;;;6.70;99.90;;;;;;6211354;23;20020;-77
2021/11/15 07:15:35;;;;;;;61.25;18.92;;;6.60;99.90;;;;;;6210613;23;20342;-77
2021/11/15 07:18:00;;;;;;;50.10;18.45;;;6.70;99.90;;;;;;6209100;23;20017;-78
2021/11/15 07:20:26;;;;;;;56.30;18.38;;;6.60;99.90;;;;;;6211250;23;20484;-77
2021/11/15 07:22:52;;;;;;;56.03;19.30;;;6.70;99.90;;;;;;6186367;23;20345;-78
2021/11/15 07:25:19;;;;;;;52.83;18.10;;;6.60;99.90;;;;;;6210545;23;20130;-77
2021/11/15 07:27:50;;;;;;;53.47;18.23;;;6.60;99.90;;;;;;6210912;23;20096;-78
2021/11/15 07:30:16;;;;;;;56.17;18.70;;;6.70;99.90;;;;;;6185475;23;20019;-79
2021/11/15 07:32:42;;;;;;;53.47;18.92;;;6.70;99.90;;;;;;6210585;23;20059;-78
2021/11/15 07:35:08;;;;;;;54.80;19.35;;;6.70;99.90;;;;;;6210065;23;20016;-78
2021/11/15 07:37:35;;;;;;;50.10;17.60;;;6.70;99.90;;;;;;6210650;23;20012;-78
2021/11/15 07:40:04;;;;;;;58.67;19.38;;;6.70;99.90;;;;;;6210531;23;20430;-78
2021/11/15 07:42:30;;;;;;;60.22;18.98;;;6.70;99.90;;;;;;6185679;23;20020;-77
2021/11/15 07:44:56;;;;;;;57.58;18.92;;;6.70;99.90;;;;;;6209259;23;20020;-77
2021/11/15 07:47:21;;;;;;;61.38;19.27;;;6.70;99.90;;;;;;6209167;23;20025;-78
2021/11/15 07:49:47;;;;;;;57.05;17.80;;;6.70;99.90;;;;;;6210807;23;20023;-78
2021/11/15 07:52:15;;;;;;;55.70;18.67;;;6.60;99.90;;;;;;6209517;23;20085;-77
2021/11/15 07:54:41;;;;;;;54.88;17.15;;;6.70;99.90;;;;;;6209776;23;20020;-78
2021/11/15 07:57:08;;;;;;;50.55;17.10;;;6.70;99.90;;;;;;6209361;23;20021;-78
2021/11/15 07:59:34;;;;;;;57.03;18.83;;;6.90;99.90;;;;;;6184572;23;20016;-78
2021/11/15 08:02:01;;;;;;;51.05;16.42;;;6.90;99.90;;;;;;6209501;23;20036;-79
2021/11/15 08:04:26;;;;;;;48.53;16.83;;;6.80;99.90;;;;;;6185397;23;20020;-79
2021/11/15 08:06:52;;;;;;;53.30;16.42;;;6.80;99.90;;;;;;6213260;23;20025;-79
2021/11/15 08:09:20;;;;;;;51.22;16.25;;;6.70;99.90;;;;;;6161484;23;20063;-79
2021/11/15 08:11:49;;;;;;;50.38;17.13;;;6.60;99.90;;;;;;6186261;23;20301;-79
2021/11/15 08:14:16;;;;;;;53.75;17.15;;;6.70;99.90;;;;;;6185518;23;20305;-79
2021/11/15 08:16:42;;;;;;;56.90;17.30;;;6.60;99.90;;;;;;6185186;23;20016;-79
2021/11/15 08:19:08;;;;;;;54.03;16.50;;;6.60;99.90;;;;;;6185582;23;20009;-79
2021/11/15 08:21:34;;;;;;;54.88;17.75;;;6.50;99.90;;;;;;6185122;23;20096;-79
2021/11/15 08:24:20;;;;;;;51.05;16.42;;;6.70;99.90;;;;;;6185767;23;20016;-79
2021/11/15 08:26:56;;;;;;;51.40;15.82;;;6.60;99.90;;;;;;6160672;23;20016;-79
2021/11/15 08:29:25;;;;;;;49.17;16.20;;;6.60;99.90;;;;;;6160529;23;20464;-79
2021/11/15 08:31:53;;;;;;;48.78;16.23;;;6.60;99.90;;;;;;6184323;23;20016;-76
2021/11/15 08:34:20;;;;;;;46.15;15.52;;;6.60;99.90;;;;;;6161528;23;20035;-78
2021/11/15 08:36:47;;;;;;;43.55;14.10;;;6.60;99.90;;;;;;6185614;23;20013;-78
2021/11/15 08:39:16;;;;;;;41.45;13.68;;;6.60;99.90;;;;;;6186019;23;20340;-78
2021/11/15 08:41:47;;;;;;;42.75;14.15;;;6.70;99.90;;;;;;6159012;23;20019;-78
2021/11/15 08:44:16;;;;;;;37.65;13.80;;;7.30;99.90;;;;;;6185418;23;20016;-77
2021/11/15 08:46:44;;;;;;;42.20;14.18;;;6.70;99.90;;;;;;6185796;23;20493;-78
2021/11/15 08:49:10;;;;;;;44.75;14.32;;;6.60;99.90;;;;;;6186071;23;20020;-77
2021/11/15 08:51:37;;;;;;;43.00;14.48;;;6.60;99.90;;;;;;6159920;23;20008;-75
2021/11/15 08:54:06;;;;;;;42.13;14.50;;;6.60;99.90;;;;;;6186007;23;20016;-74
2021/11/15 08:56:32;;;;;;;38.15;13.73;;;6.60;99.90;;;;;;6161352;23;20051;-75
2021/11/15 08:58:57;;;;;;;44.50;15.10;;;6.70;99.90;;;;;;6185684;23;20012;-75
2021/11/15 09:01:25;;;;;;;43.65;14.40;;;6.60;99.90;;;;;;6159712;23;20317;-76
2021/11/15 09:03:53;;;;;;;42.65;14.10;;;6.60;99.90;;;;;;6186425;23;20479;-76
2021/11/15 09:06:20;;;;;;;37.75;11.90;;;6.60;99.90;;;;;;6194858;23;20017;-76
2021/11/15 09:08:46;;;;;;;34.63;11.63;;;6.70;99.90;;;;;;6184484;23;20140;-77
2021/11/15 09:11:14;;;;;;;37.42;12.10;;;6.60;99.90;;;;;;6209320;23;20064;-77
2021/11/15 09:13:44;;;;;;;33.65;12.45;;;6.60;99.90;;;;;;6209393;23;20017;-77
2021/11/15 09:16:11;;;;;;;33.33;11.82;;;6.60;99.90;;;;;;6207668;23;20031;-77
2021/11/15 09:18:38;;;;;;;39.42;13.48;;;6.70;99.90;;;;;;6210125;23;20091;-77
2021/11/15 09:21:10;;;;;;;34.92;12.43;;;6.60;99.90;;;;;;6210405;23;20012;-77
2021/11/15 09:23:39;;;;;;;39.00;13.35;;;6.70;99.90;;;;;;6210002;23;20388;-77
2021/11/15 09:26:06;;;;;;;39.13;12.88;;;6.70;99.90;;;;;;6209892;23;20023;-77
2021/11/15 09:28:32;;;;;;;37.60;12.75;;;6.70;99.90;;;;;;6208908;23;20020;-77
2021/11/15 09:30:58;;;;;;;40.08;12.88;;;6.70;99.90;;;;;;6208490;23;20067;-77
2021/11/15 09:33:24;;;;;;;41.00;13.57;;;6.70;99.90;;;;;;6182918;23;20009;-77
2021/11/15 09:35:52;;;;;;;39.75;13.02;;;6.70;99.90;;;;;;6208935;23;20020;-77
2021/11/15 09:38:20;;;;;;;40.30;12.40;;;6.70;99.90;;;;;;6211804;23;20035;-77
2021/11/15 09:40:49;;;;;;;39.20;13.13;;;6.70;99.90;;;;;;6210747;23;20017;-78
2021/11/15 09:43:16;;;;;;;38.17;13.00;;;6.70;99.90;;;;;;6184809;23;20031;-79
2021/11/15 09:45:43;;;;;;;39.80;14.35;;;6.70;99.90;;;;;;6185523;23;20469;-78
2021/11/15 09:48:09;;;;;;;35.22;13.43;;;6.70;99.90;;;;;;6210166;23;20027;-78
2021/11/15 09:50:37;;;;;;;36.65;12.77;;;6.70;99.90;;;;;;6210296;23;20047;-78
2021/11/15 09:53:03;;;;;;;36.13;12.73;;;6.70;99.90;;;;;;6211129;23;20036;-78
2021/11/15 09:55:31;;;;;;;38.00;14.10;;;6.70;99.90;;;;;;6212147;23;20013;-78
2021/11/15 09:57:57;;;;;;;40.45;13.98;;;6.70;99.90;;;;;;6210674;23;20016;-79
2021/11/15 10:00:25;;;;;;;41.22;14.23;;;6.70;99.90;;;;;;6211599;23;20096;-79
2021/11/15 10:02:52;;;;;;;42.00;14.35;;;6.80;99.90;;;;;;6211173;23;20017;-79
2021/11/15 10:05:19;;;;;;;34.38;13.27;;;6.80;99.90;;;;;;6185222;23;20017;-79
2021/11/15 10:07:52;;;;;;;38.80;13.25;;;6.80;99.90;;;;;;6186487;23;20096;-79
2021/11/15 10:10:39;;;;;;;33.03;11.88;;;6.90;99.90;;;;;;6161460;23;20017;-79
2021/11/15 10:13:18;;;;;;;38.67;13.20;;;6.80;99.90;;;;;;6186720;23;20087;-78
2021/11/15 10:16:02;;;;;;;37.38;11.95;;;6.80;99.90;;;;;;6186620;23;20015;-79
2021/11/15 10:18:50;;;;;;;36.88;12.55;;;6.80;99.90;;;;;;6186938;23;20012;-78
2021/11/15 10:21:28;;;;;;;35.63;12.15;;;6.80;99.90;;;;;;6162407;23;20034;-78
2021/11/15 10:24:07;;;;;;;37.90;12.43;;;6.80;99.90;;;;;;6162714;23;20096;-78
2021/11/15 10:26:47;;;;;;;32.72;10.80;;;6.80;99.90;;;;;;6162556;23;20425;-77
2021/11/15 10:29:17;;;;;;;34.45;11.80;;;6.80;99.90;;;;;;6161645;23;20016;-77
2021/11/15 10:31:54;;;;;;;31.90;11.35;;;6.90;99.90;;;;;;6186626;23;20152;-77
2021/11/15 10:34:47;;;;;;;28.48;10.40;;;6.90;99.90;;;;;;6186820;23;20040;-78
2021/11/15 10:37:18;;;;;;;34.00;12.07;;;6.90;99.90;;;;;;6163350;23;20063;-78
2021/11/15 10:39:57;;;;;;;25.58;9.15;;;6.90;99.90;;;;;;6186758;23;20017;-78
2021/11/15 10:42:28;;;;;;;23.15;9.45;;;6.90;99.90;;;;;;6187016;23;20060;-78
2021/11/15 10:45:08;;;;;;;21.50;8.77;;;6.90;99.90;;;;;;6185895;23;20055;-77
2021/11/15 10:47:49;;;;;;;16.73;7.25;;;6.90;99.90;;;;;;6185989;23;20020;-78
2021/11/15 10:50:25;;;;;;;19.23;7.72;;;6.90;99.90;;;;;;6186082;23;20017;-79
2021/11/15 10:53:06;;;;;;;22.40;7.95;;;6.90;99.90;;;;;;6160969;23;20516;-79
2021/11/15 10:55:43;;;;;;;16.83;7.30;;;6.90;99.90;;;;;;6161176;23;20112;-79
2021/11/15 10:58:18;;;;;;;23.10;8.38;;;6.80;99.90;;;;;;6186817;23;20012;-81
2021/11/15 11:00:57;;;;;;;21.55;7.72;;;6.90;99.90;;;;;;6160076;23;20012;-81
2021/11/15 11:03:26;;;;;;;15.98;7.10;;;6.90;99.90;;;;;;6184406;23;20031;-79
2021/11/15 11:05:55;;;;;;;20.67;7.72;;;6.90;99.90;;;;;;6189437;23;20025;-83
2021/11/15 11:08:26;;;;;;;19.85;8.32;;;6.90;99.90;;;;;;6213145;23;20531;-82
2021/11/15 11:11:09;;;;;;;19.83;8.27;;;6.80;99.90;;;;;;6210641;23;20428;-77
2021/11/15 11:13:54;;;;;;;19.20;8.45;;;6.80;99.90;;;;;;6185995;23;20055;-78
2021/11/15 11:16:42;;;;;;;26.13;9.55;;;6.90;99.90;;;;;;6210840;23;20009;-77
2021/11/15 11:27:05;;;;;;;49.95;15.38;;;6.90;99.90;;;;;;6211306;23;20025;-79
2021/11/15 11:29:35;;;;;;;50.60;17.23;;;6.70;99.90;;;;;;6186622;23;20083;-79
2021/11/15 11:32:06;;;;;;;48.85;17.63;;;6.60;99.90;;;;;;6186758;23;20013;-79
2021/11/15 11:34:32;;;;;;;52.03;18.48;;;6.60;99.90;;;;;;6186921;23;20020;-80
2021/11/15 11:36:57;;;;;;;49.42;18.80;;;6.60;99.90;;;;;;6211360;23;20008;-80
2021/11/15 11:39:24;;;;;;;61.72;21.45;;;6.60;99.90;;;;;;6210664;23;20078;-76
2021/11/15 11:41:59;;;;;;;66.00;22.80;;;6.60;99.90;;;;;;6212163;23;20016;-81
2021/11/15 11:44:26;;;;;;;67.65;23.23;;;6.70;99.90;;;;;;6185857;23;20242;-78
2021/11/15 11:46:53;;;;;;;75.85;26.27;;;6.50;99.90;;;;;;6185503;23;20071;-81
2021/11/15 11:49:24;;;;;;;78.28;26.70;;;6.50;99.90;;;;;;6185520;23;20100;-80
2021/11/15 11:51:51;;;;;;;78.65;28.50;;;6.40;99.90;;;;;;6211017;23;20013;-78
2021/11/15 11:54:20;;;;;;;86.07;29.00;;;6.40;99.90;;;;;;6209895;23;20050;-80
2021/11/15 11:57:22;;;;;;;79.43;26.30;;;6.50;99.90;;;;;;6209983;23;20013;-80
2021/11/15 11:59:50;;;;;;;90.75;32.25;;;6.50;99.90;;;;;;6123881;23;20093;-79
2021/11/15 12:02:24;;;;;;;93.30;30.35;;;6.50;99.90;;;;;;6149206;23;20018;-84
2021/11/15 12:05:13;;;;;;;99.07;32.47;;;6.50;99.90;;;;;;6149276;23;20049;-82
2021/11/15 12:07:54;;;;;;;98.40;33.88;;;6.50;99.90;;;;;;6150020;23;20096;-82
2021/11/15 12:10:44;;;;;;;102.30;35.08;;;6.50;99.90;;;;;;6149947;23;20426;-81
2021/11/15 12:13:15;;;;;;;100.00;33.13;;;6.50;99.90;;;;;;6125111;23;20016;-79
2021/11/15 12:15:59;;;;;;;95.80;32.63;;;6.50;99.90;;;;;;6124973;23;20021;-84
2021/11/15 12:18:27;;;;;;;93.97;32.85;;;6.50;99.90;;;;;;6149320;23;20080;-79
2021/11/15 12:21:03;;;;;;;103.47;33.50;;;6.50;99.90;;;;;;6125734;23;20025;-80
2021/11/15 12:23:30;;;;;;;108.85;35.25;;;6.50;99.90;;;;;;6124605;23;20064;-79
2021/11/15 12:26:24;;;;;;;95.68;31.75;;;6.60;99.90;;;;;;6100228;23;20017;-80
2021/11/15 12:28:54;;;;;;;102.95;34.83;;;6.60;99.90;;;;;;6100787;23;20021;-82
2021/11/15 12:31:48;;;;;;;108.15;34.63;;;6.50;99.90;;;;;;6123392;23;20500;-81
2021/11/15 12:34:16;;;;;;;100.15;32.35;;;6.50;99.90;;;;;;6076101;23;20010;-80
2021/11/15 12:36:46;;;;;;;103.43;35.88;;;6.50;99.90;;;;;;6184373;23;20016;-81
2021/11/15 12:39:18;;;;;;;103.18;35.10;;;6.50;99.90;;;;;;6184637;23;20138;-80
2021/11/15 12:41:50;;;;;;;98.65;36.10;;;6.60;99.90;;;;;;6210689;23;20016;-79
2021/11/15 12:44:24;;;;;;;96.43;36.00;;;6.50;99.90;;;;;;6210161;23;20016;-79
2021/11/15 12:46:58;;;;;;;100.75;35.80;;;6.60;99.90;;;;;;6209179;23;20083;-80
2021/11/15 12:49:28;;;;;;;98.13;33.57;;;6.70;99.90;;;;;;6211138;23;20445;-78
2021/11/15 12:52:06;;;;;;;98.60;34.28;;;6.70;99.90;;;;;;6210083;23;20017;-78
2021/11/15 12:54:34;;;;;;;97.05;33.65;;;6.60;99.90;;;;;;6210787;23;20031;-77